• Join FlightAware (Why Join?)
  • Login
  • US Flag 
02:30PM EDT


 

Airport Tracker/Info


-or-


 

Live Flight TrackerFlight Track Log ✈ DAL3878 ✈ 30-Nov-2013 ✈ KDTW - KPLN

Flight Track Log - Related Links

Times and Time Zones

All times are in EST time to prevent confusion due to time zone crossing. See the DAL3878 flight status page for this flight to view local times or setup timezone preferences in your user account.

Time Position Orientation Groundspeed Altitude Reporting Facility
EST Latitude Longitude Course Direction KTS MPH feet Rate Location/Type
08:31PM 42.2106 -83.3650 223° Southwest 141 162 1,400  Level Cleveland Center
08:32PM 42.1639 -83.4231 223° Southwest 198 228 4,600 1,860 Climbing Cleveland Center
08:33PM 42.1583 -83.4325 232° Southwest 186 214 4,800 2,400 Climbing Cleveland Center
08:33PM 42.1397 -83.4928 247° West 247 284 6,800 3,240 Climbing Cleveland Center
08:34PM 42.1547 -83.5283 300° West 245 282 8,200 2,100 Climbing Cleveland Center
08:35PM 42.1981 -83.6139 304° West 267 307 10,000 2,100 Climbing Cleveland Center
08:36PM 42.2775 -83.6608 336° Northwest 313 360 12,600 2,100 Climbing Cleveland Center
08:37PM 42.3736 -83.6169 19° North 357 411 14,400 1,800 Climbing Cleveland Center
08:38PM 42.4722 -83.5708 19° North 369 425 16,400 1,800 Climbing Cleveland Center
08:39PM 42.5725 -83.5242 19° North 376 433 18,200 1,740 Climbing Cleveland Center
08:40PM 42.6739 -83.4772 19° North 382 440 20,000 1,560 Climbing Cleveland Center
08:41PM 42.7764 -83.4289 19° North 387 445 21,400 960 Climbing Cleveland Center
08:42PM 42.8817 -83.3800 19° North 396 456 22,000 240 Climbing Cleveland Center
08:43PM 42.9964 -83.3831 359° North 427 491 22,000  Level Cleveland Center
08:44PM 43.1033 -83.4386 339° North 416 479 22,000  Level Cleveland Center
08:45PM 43.2331 -83.5064 339° North 418 481 22,000  Level Cleveland Center
08:46PM 43.3397 -83.5636 339° North 415 478 22,000  Level Cleveland Center
08:47PM 43.4467 -83.6203 339° North 413 475 22,000  Level Cleveland Center
08:48PM 43.5522 -83.6753 339° North 407 468 22,000  Level Cleveland Center
08:49PM 43.6575 -83.7325 339° North 406 467 22,000  Level Cleveland Center
08:50PM 43.7667 -83.7906 339° North 404 465 22,000  Level Cleveland Center
08:51PM 43.8717 -83.8464 339° North 404 465 22,000  Level Cleveland Center
08:52PM 43.9772 -83.9044 338° Northwest 408 470 22,000  Level Cleveland Center
08:53PM 44.0817 -83.9622 338° Northwest 407 468 22,000  Level Cleveland Center
08:54PM 44.2078 -84.0303 339° North 406 467 22,000 -300 Level Cleveland Center
08:55PM 44.3064 -84.0828 339° North 383 441 21,500 -1,080 Descending Cleveland Center
08:56PM 44.3981 -84.1339 338° Northwest 360 414 19,800 -1,740 Descending Cleveland Center
08:57PM 44.4914 -84.1850 339° North 360 414 18,000 -1,800 Descending Cleveland Center
08:58PM 44.5822 -84.2353 338° Northwest 355 409 16,200 -1,800 Descending Cleveland Center
08:59PM 44.6719 -84.2875 338° Northwest 353 406 14,400 -1,800 Descending Cleveland Center
09:00PM 44.7592 -84.3381 338° Northwest 348 400 12,600 -1,800 Descending Cleveland Center
09:02PM 44.8678 -84.3972 339° North 309 356 10,300 -1,740 Descending Minneapolis Center
09:03PM 44.9450 -84.4403 338° Northwest 280 322 8,700 -1,500 Descending Minneapolis Center
09:04PM 45.0117 -84.4786 338° Northwest 268 308 7,200 -1,500 Descending Minneapolis Center
09:05PM 45.0814 -84.5022 347° North 261 300 5,700 -1,560 Descending Minneapolis Center
09:06PM 45.1553 -84.5261 347° North 256 295 4,100 -840 Descending Minneapolis Center
09:07PM 45.2225 -84.5483 347° North 252 290 4,000 -540 Descending Minneapolis Center
09:08PM 45.2947 -84.5753 345° North 251 289 3,100 -540 Descending Minneapolis Center
09:09PM 45.3583 -84.6019 344° North 244 281 2,900 -120 Descending Minneapolis Center
09:10PM 45.4211 -84.6314 342° North 223 257 2,900  Level Minneapolis Center
09:11PM 45.4706 -84.6558 341° North 193 222 2,900 -180 Level Minneapolis Center
09:12PM 45.5008 -84.7003 314° West 175 201 2,600 -300 Descending Minneapolis Center